Latest Weather Observations for Borroloola

IDD60801

Issued at 2:35 pm CST Saturday 1 November 2014 (issued every 30 minutes, with the page automatically refreshed every 10 minutes)

About weather observations | Map of weather stations | Latest weather observations for NT | Other Formats
Station Details ID: 014723 Name: BORROLOOLA AIRPORT Lat: -16.08 Lon: 136.30 Height: 16.1 m
Data from the previous 72 hours. | See also: Recent months at Borroloola
Date/Time
CST
Temp
°C
App
Temp
°C
Dew
Point
Rel
Hum
%
Delta-T
°C
Wind Press
QNH
hPa
Press
MSL
hPa
Rain
since 9 am
mm
Dir
 
Spd
km/h
Gust
km/h
Spd
kts
Gust
kts
01/02:30pm 34.5 33.4 16.4 34 11.5 N 17 22 9 12 1009.1 1009.0 0.0
01/02:00pm 35.3 34.3 16.6 33 11.9 NE 17 28 9 15 1009.4 1009.3 0.0
01/01:30pm 34.9 33.8 17.2 35 11.4 NNE 19 30 10 16 1009.7 1009.6 0.0
01/01:00pm 34.6 33.3 16.9 35 11.3 NNE 19 30 10 16 1010.0 1009.9 0.0
01/12:30pm 34.3 32.6 16.2 34 11.5 NNE 20 32 11 17 1010.5 1010.4 0.0
01/12:00pm 34.4 33.1 16.7 34 11.3 NNE 19 28 10 15 1011.1 1011.0 0.0
01/11:30am 34.3 32.6 17.1 36 11.0 NNE 22 37 12 20 1011.3 1011.2 0.0
01/11:00am 34.5 33.0 17.7 37 10.9 NNE 22 33 12 18 1011.6 1011.5 0.0
01/10:30am 34.3 32.9 17.9 37 10.6 N 22 33 12 18 1011.7 1011.6 0.0
01/10:00am 33.6 32.3 17.3 37 10.4 NNE 20 28 11 15 1011.9 1011.8 0.0
01/09:30am 32.2 32.4 20.1 48 8.0 N 19 24 10 13 1011.9 1011.8 0.0
01/09:00am 30.9 32.0 20.5 54 6.9 N 15 24 8 13 1012.0 1011.9 -
01/08:30am 29.6 31.5 21.3 61 5.6 N 13 19 7 10 1012.0 1011.9 -
01/08:00am 28.5 30.3 22.5 70 4.1 NNW 17 22 9 12 1011.8 1011.7 -
01/07:30am 26.6 28.3 22.4 78 2.8 N 17 20 9 11 1011.5 1011.4 -
01/07:00am 25.2 28.1 22.5 85 1.8 N 11 15 6 8 1011.1 1011.0 -
01/06:30am 23.3 26.8 21.9 92 0.9 N 6 7 3 4 1010.8 1010.7 -
01/06:00am 22.4 25.4 21.2 93 0.8 N 7 9 4 5 1010.5 1010.4 -
01/05:30am 22.2 25.2 20.8 92 0.9 N 6 9 3 5 1010.2 1010.1 -
01/05:00am 21.8 25.3 19.5 87 1.5 CALM 0 0 0 0 1009.8 1009.7 -
01/04:30am 23.0 27.4 21.3 90 1.1 CALM 0 0 0 0 1009.6 1009.5 -
01/04:00am 22.9 26.8 21.2 90 1.1 N 2 6 1 3 1009.6 1009.5 -
01/03:30am 23.2 27.2 21.3 89 1.3 NNE 2 7 1 4 1009.4 1009.3 -
01/03:00am 23.4 26.6 21.3 88 1.4 NNE 6 9 3 5 1009.4 1009.3 -
01/02:30am 23.5 26.1 21.2 87 1.5 NNE 9 9 5 5 1009.4 1009.3 -
01/02:00am 23.6 26.1 21.1 86 1.6 NNE 9 13 5 7 1009.4 1009.3 -
01/01:30am 23.9 26.5 21.2 85 1.8 NNE 9 13 5 7 1009.6 1009.5 -
01/12:30am 24.2 27.1 21.1 83 2.0 N 7 9 4 5 1010.0 1009.9 0.0
01/12:00am 24.6 28.0 20.9 80 2.4 NNE 4 6 2 3 1010.1 1010.0 0.0
 
Date/Time
CST
Temp
°C
App
Temp
°C
Dew
Point
Rel
Hum
%
Delta-T
°C
Wind Press
QNH
hPa
Press
MSL
hPa
Rain
since 9 am
mm
Dir
 
Spd
km/h
Gust
km/h
Spd
kts
Gust
kts
31/11:30pm 24.7 28.7 20.6 78 2.7 CALM 0 0 0 0 1010.3 1010.2 0.0
31/11:00pm 25.3 29.5 21.0 77 2.8 CALM 0 0 0 0 1010.6 1010.5 0.0
31/10:30pm 25.5 28.4 20.7 75 3.2 NNE 6 7 3 4 1010.9 1010.8 0.0
31/10:00pm 26.0 29.7 20.8 73 3.4 NNE 2 7 1 4 1010.8 1010.7 0.0
31/09:30pm 26.3 29.1 20.8 71 3.6 NE 7 9 4 5 1010.5 1010.4 0.0
31/09:00pm 26.7 29.5 20.8 70 3.9 NNE 7 9 4 5 1010.2 1010.1 0.0
31/08:30pm 27.1 29.7 20.4 66 4.4 N 7 11 4 6 1010.1 1010.0 0.0
31/08:00pm 27.7 29.2 20.5 65 4.7 N 13 19 7 10 1009.7 1009.6 0.0
31/07:30pm 28.2 28.7 20.0 61 5.4 N 17 20 9 11 1009.3 1009.2 0.0
31/07:00pm 28.9 29.3 19.8 58 6.0 N 17 22 9 12 1009.0 1008.9 0.0
31/06:30pm 29.5 30.4 19.2 54 6.7 NNE 13 19 7 10 1008.7 1008.6 0.0
31/06:00pm 30.5 30.1 18.9 50 7.5 N 19 24 10 13 1008.4 1008.3 0.0
31/05:30pm 31.5 30.7 18.5 46 8.4 N 20 26 11 14 1008.1 1008.0 0.0
31/05:00pm 32.6 31.8 18.4 43 9.2 N 20 26 11 14 1008.0 1007.9 0.0
31/04:30pm 32.8 31.9 18.2 42 9.5 N 20 30 11 16 1007.9 1007.8 0.0
31/04:00pm 33.7 33.0 18.6 40 9.9 N 20 30 11 16 1007.9 1007.8 0.0
31/03:30pm 33.7 32.6 18.6 40 9.9 NNE 22 30 12 16 1008.0 1007.9 0.0
31/03:00pm 34.4 32.7 18.0 37 10.6 NE 24 35 13 19 1008.1 1008.0 0.0
31/02:30pm 34.4 33.2 17.6 37 10.8 NNE 20 33 11 18 1008.3 1008.2 0.0
31/02:00pm 35.2 34.0 17.4 34 11.5 N 20 28 11 15 1008.6 1008.5 0.0
31/01:30pm 35.5 34.0 16.8 33 12.0 NE 20 30 11 16 1008.8 1008.7 0.0
31/01:00pm 34.3 31.6 15.7 32 11.7 NNE 24 32 13 17 1009.2 1009.1 0.0
31/12:30pm 36.3 34.5 17.0 32 12.4 NNE 22 32 12 17 1009.5 1009.4 0.0
31/12:00pm 35.5 33.3 16.8 33 12.0 N 24 37 13 20 1009.9 1009.8 0.0
31/11:30am 34.7 31.6 16.5 33 11.6 NE 28 41 15 22 1010.4 1010.3 0.0
31/11:00am 35.2 33.8 17.0 34 11.7 NNE 20 30 11 16 1010.9 1010.8 0.0
31/10:30am 34.1 32.3 16.0 34 11.4 NNE 20 32 11 17 1011.2 1011.1 0.0
31/10:00am 33.7 33.3 19.0 42 9.6 NNE 19 30 10 16 1011.4 1011.3 0.0
31/09:30am 32.5 32.7 19.4 46 8.6 N 17 26 9 14 1011.7 1011.6 0.0
31/09:00am 31.0 31.3 19.7 51 7.4 N 17 24 9 13 1011.8 1011.7 -
31/08:30am 29.2 31.3 22.4 66 4.6 N 15 20 8 11 1011.7 1011.6 -
31/08:00am 28.3 32.4 23.2 74 3.5 N 7 11 4 6 1011.6 1011.5 -
31/07:30am 26.6 31.2 22.4 78 2.8 ENE 2 7 1 4 1011.3 1011.2 -
31/07:00am 24.6 27.9 20.7 79 2.6 SE 4 7 2 4 1010.9 1010.8 -
31/06:30am 22.9 26.6 19.9 83 1.9 CALM 0 0 0 0 1010.5 1010.4 -
31/06:00am 21.6 24.2 18.4 82 2.0 SE 2 6 1 3 1009.8 1009.7 -
31/05:30am 22.0 23.9 18.6 81 2.1 ESE 6 7 3 4 1009.3 1009.2 -
31/05:00am 22.2 23.8 17.8 76 2.7 NNE 6 7 3 4 1009.0 1008.9 -
31/04:30am 21.8 24.4 17.4 76 2.7 CALM 0 0 0 0 1008.6 1008.5 -
31/04:00am 22.0 24.5 17.2 74 2.9 CALM 0 0 0 0 1008.2 1008.1 -
31/03:30am 22.6 25.7 18.6 78 2.5 CALM 0 0 0 0 1007.9 1007.8 -
31/03:00am 22.8 25.5 17.7 73 3.2 CALM 0 0 0 0 1007.9 1007.8 0.0
31/02:30am 22.8 25.6 17.9 74 3.1 CALM 0 0 0 0 1008.1 1008.0 -
31/02:00am 23.1 25.9 18.0 73 3.2 CALM 0 0 0 0 1008.3 1008.2 -
31/01:30am 23.8 26.4 17.5 68 3.9 CALM 0 0 0 0 1008.5 1008.4 -
31/01:00am 23.7 26.6 18.1 71 3.5 CALM 0 0 0 0 1008.8 1008.7 -
31/12:30am 24.2 27.1 19.9 77 2.8 NE 4 6 2 3 1009.0 1008.9 -
31/12:00am 24.1 27.2 18.7 72 3.4 CALM 0 0 0 0 1009.3 1009.2 -
 
Date/Time
CST
Temp
°C
App
Temp
°C
Dew
Point
Rel
Hum
%
Delta-T
°C
Wind Press
QNH
hPa
Press
MSL
hPa
Rain
since 9 am
mm
Dir
 
Spd
km/h
Gust
km/h
Spd
kts
Gust
kts
30/11:30pm 24.7 28.1 19.3 72 3.5 CALM 0 0 0 0 1009.6 1009.5 -
30/11:00pm 25.5 28.8 19.2 68 4.0 CALM 0 0 0 0 1009.8 1009.7 -
30/10:30pm 26.0 28.4 19.6 68 4.1 NNE 6 7 3 4 1009.9 1009.8 -
30/10:00pm 26.3 28.6 19.4 66 4.5 NNE 6 7 3 4 1009.9 1009.8 -
30/09:30pm 26.5 28.5 19.1 64 4.8 N 7 9 4 5 1009.8 1009.7 -
30/09:00pm 27.2 28.4 19.0 61 5.3 N 11 13 6 7 1009.5 1009.4 0.0
30/08:30pm 27.6 28.2 18.6 58 5.8 N 13 17 7 9 1009.4 1009.3 -
30/08:00pm 27.9 28.0 18.3 56 6.1 N 15 20 8 11 1009.3 1009.2 -
30/07:30pm 28.4 29.0 18.5 55 6.4 N 13 20 7 11 1009.0 1008.9 -
30/07:00pm 29.0 27.9 17.8 50 7.1 N 20 28 11 15 1008.7 1008.6 -
30/06:30pm 29.8 29.0 17.9 48 7.6 N 19 30 10 16 1008.3 1008.2 -
30/06:00pm 30.8 29.6 17.5 45 8.5 NNE 20 28 11 15 1007.8 1007.7 -
30/05:30pm 32.3 29.6 15.7 36 10.4 N 24 32 13 17 1007.7 1007.6 -
30/05:00pm 33.2 29.6 15.2 33 11.2 N 28 35 15 19 1007.5 1007.4 -
30/04:30pm 33.9 30.0 14.4 31 12.0 N 28 35 15 19 1007.1 1007.0 -
30/04:00pm 35.0 31.4 14.3 29 12.8 N 26 35 14 19 1007.0 1006.9 -
30/03:30pm 36.1 32.3 14.7 28 13.3 N 28 37 15 20 1007.1 1007.0 -
30/03:00pm 36.9 33.4 15.4 28 13.6 NNE 28 41 15 22 1007.3 1007.2 -
30/02:30pm 37.3 33.3 16.3 29 13.4 N 32 43 17 23 1007.4 1007.3 -
30/02:00pm 38.0 35.3 15.7 26 14.2 NE 24 35 13 19 1007.6 1007.5 -
30/01:30pm 38.2 35.5 13.4 23 15.3 NNE 20 35 11 19 1007.9 1007.8 -
30/01:00pm 40.0 37.8 12.0 19 17.0 ENE 15 28 8 15 1008.1 1008.0 -
30/12:30pm 38.7 37.2 13.2 22 15.7 NNE 13 26 7 14 1008.7 1008.6 -
30/12:00pm 38.6 38.5 15.0 24 14.9 NNE 9 24 5 13 1009.4 1009.3 -
30/11:30am 36.6 35.2 14.6 27 13.7 N 15 20 8 11 1009.9 1009.8 0.0
30/11:00am 36.1 35.3 15.2 28 13.1 NNE 13 19 7 10 1010.4 1010.3 0.0
30/10:30am 34.6 35.8 17.3 35 11.1 NW 7 13 4 7 1010.9 1010.8 0.0
30/09:30am 32.8 35.0 19.3 45 8.9 SW 6 11 3 6 1011.8 1011.7 0.0
30/09:00am 30.5 32.8 20.7 55 6.5 W 9 17 5 9 1011.8 1011.7 0.0
30/08:30am 29.4 32.4 21.9 64 5.1 WNW 9 15 5 8 1011.9 1011.8 0.0
30/08:00am 27.9 30.9 21.9 70 4.0 W 9 17 5 9 1011.7 1011.6 0.0
30/07:30am 26.6 30.2 22.0 76 3.1 W 6 9 3 5 1011.5 1011.4 0.0
30/07:00am 24.6 28.8 20.9 80 2.4 CALM 0 0 0 0 1011.3 1011.2 0.0
30/06:30am 23.4 27.6 20.9 86 1.6 CALM 0 0 0 0 1011.3 1011.2 0.0
30/06:00am 23.0 25.9 20.7 87 1.5 ESE 6 7 3 4 1010.9 1010.8 0.0
30/05:30am 22.5 24.9 20.0 86 1.6 S 7 11 4 6 1010.7 1010.6 0.0
30/05:00am 22.1 23.7 19.1 83 1.9 SSE 9 11 5 6 1010.3 1010.2 0.0
30/04:30am 22.7 26.4 20.0 85 1.7 CALM 0 0 0 0 1009.7 1009.6 0.0
30/04:00am 22.9 26.5 19.7 82 2.1 CALM 0 0 0 0 1009.6 1009.5 0.0
30/03:30am 24.2 28.8 21.7 86 1.7 CALM 0 0 0 0 1009.6 1009.5 0.0
30/03:00am 24.4 28.9 21.5 84 1.9 CALM 0 0 0 0 1009.7 1009.6 0.0
30/02:30am 24.4 28.5 20.7 80 2.4 CALM 0 0 0 0 1009.8 1009.7 0.0
30/02:00am 24.8 29.5 21.9 84 1.9 CALM 0 0 0 0 1009.8 1009.7 0.0
30/01:30am 24.8 29.0 20.9 79 2.6 CALM 0 0 0 0 1010.1 1010.0 0.0
30/01:00am 25.3 29.9 21.8 81 2.3 CALM 0 0 0 0 1010.3 1010.2 0.0
30/12:30am 25.6 30.3 21.9 80 2.5 CALM 0 6 0 3 1010.5 1010.4 0.0
30/12:00am 25.7 30.3 21.8 79 2.6 CALM 0 6 0 3 1010.8 1010.7 0.0
 
Date/Time
CST
Temp
°C
App
Temp
°C
Dew
Point
Rel
Hum
%
Delta-T
°C
Wind Press
QNH
hPa
Press
MSL
hPa
Rain
since 9 am
mm
Dir
 
Spd
km/h
Gust
km/h
Spd
kts
Gust
kts
29/11:30pm 26.1 29.1 22.0 78 2.7 N 9 13 5 7 1010.8 1010.7 0.0
29/11:00pm 26.1 29.0 21.7 77 2.9 N 9 11 5 6 1011.0 1010.9 0.0
29/10:30pm 26.4 29.2 21.6 75 3.2 N 9 13 5 7 1011.2 1011.1 0.0
29/10:00pm 26.9 29.6 21.4 72 3.7 N 9 15 5 8 1011.3 1011.2 0.0
29/09:30pm 27.2 30.0 21.5 71 3.8 N 9 13 5 7 1011.2 1011.1 0.0
29/09:00pm 27.2 30.1 21.0 69 4.1 SSW 7 17 4 9 1011.0 1010.9 0.0
29/08:30pm 27.7 30.1 20.8 66 4.6 NNE 9 15 5 8 1010.6 1010.5 0.0
29/08:00pm 28.1 29.2 20.4 63 5.1 N 15 22 8 12 1010.4 1010.3 0.0
29/07:30pm 28.5 29.4 20.8 63 5.1 NNE 17 24 9 13 1010.0 1009.9 0.0
29/07:00pm 29.1 28.8 20.3 59 5.8 N 22 33 12 18 1009.6 1009.5 0.0
29/06:30pm 30.4 30.3 18.8 50 7.5 N 17 28 9 15 1009.3 1009.2 0.0
29/06:00pm 31.9 30.8 17.4 42 9.3 NNE 19 28 10 15 1008.9 1008.8 0.0
29/05:30pm 33.8 30.7 15.7 33 11.4 N 26 33 14 18 1008.4 1008.3 0.0
29/05:00pm 35.7 33.3 14.4 28 13.2 NNE 20 28 11 15 1008.2 1008.1 0.0
29/04:30pm 37.1 34.1 13.8 25 14.4 NNE 22 32 12 17 1008.0 1007.9 0.0
29/04:00pm 37.3 34.5 13.3 23 14.7 NNE 20 28 11 15 1008.0 1007.9 0.0
29/03:30pm 38.1 35.1 12.7 22 15.5 N 20 26 11 14 1008.0 1007.9 0.0
29/03:00pm 38.9 35.2 12.6 21 16.1 NNE 24 32 13 17 1008.1 1008.0 0.0

Other Formats:

Comma delimited format used in spreadsheet applications
http://www.bom.gov.au/fwo/IDD60801/IDD60801.94152.axf

JavaScript Object Notation format (JSON) in row-major order
http://www.bom.gov.au/fwo/IDD60801/IDD60801.94152.json